createdAt,value
2023-07-08T00:01:21.280Z,98807.22
2023-07-08T00:03:49.355Z,98800.34
2023-07-08T00:06:20.843Z,98789.75
2023-07-08T00:08:48.254Z,98798.16
2023-07-08T00:11:17.002Z,98796.59
2023-07-08T00:13:43.951Z,98796.75
2023-07-08T00:16:16.491Z,98796.88
2023-07-08T00:18:43.282Z,98798.16
2023-07-08T00:21:17.856Z,98804.56
2023-07-08T00:23:48.213Z,98807.72
2023-07-08T00:26:21.687Z,98803.44
2023-07-08T00:28:48.470Z,98801.00
2023-07-08T00:31:16.641Z,98802.28
2023-07-08T00:33:49.510Z,98801.69
2023-07-08T00:36:18.520Z,98796.69
2023-07-08T00:38:46.547Z,98795.06
2023-07-08T00:41:31.640Z,98799.78
2023-07-08T00:44:00.275Z,98797.22
2023-07-08T00:46:33.110Z,98796.50
2023-07-08T00:49:09.477Z,98796.50
2023-07-08T00:51:42.987Z,98792.06
2023-07-08T00:54:14.197Z,98791.19
2023-07-08T00:57:00.788Z,98790.34
2023-07-08T00:59:32.519Z,98792.34
2023-07-08T01:02:03.597Z,98788.91
2023-07-08T01:04:54.713Z,98789.16
2023-07-08T01:07:22.894Z,98778.00
2023-07-08T01:10:02.123Z,98778.13
2023-07-08T01:12:38.087Z,98781.88
2023-07-08T01:15:07.918Z,98773.72
2023-07-08T01:17:35.195Z,98777.41
2023-07-08T01:20:07.259Z,98777.41
2023-07-08T01:22:37.937Z,98778.13
2023-07-08T01:25:05.663Z,98775.28
2023-07-08T01:27:36.663Z,98777.03
2023-07-08T01:30:05.764Z,98784.03
2023-07-08T01:32:35.516Z,98781.56
2023-07-08T01:35:04.404Z,98779.88
2023-07-08T01:37:36.940Z,98769.00
2023-07-08T01:40:22.546Z,98778.84
2023-07-08T01:42:49.289Z,98782.59
2023-07-08T01:45:18.950Z,98771.72
2023-07-08T01:47:53.037Z,98775.28
2023-07-08T01:50:21.228Z,98779.88
2023-07-08T01:52:51.138Z,98780.84
2023-07-08T01:55:23.626Z,98783.41
2023-07-08T01:57:52.763Z,98784.09
2023-07-08T02:00:20.590Z,98786.94
2023-07-08T02:02:49.891Z,98791.22
2023-07-08T02:05:17.991Z,98790.25
2023-07-08T02:07:44.793Z,98790.38
2023-07-08T02:10:11.788Z,98794.09
2023-07-08T02:12:39.645Z,98793.38
2023-07-08T02:15:07.213Z,98797.34
2023-07-08T02:17:34.369Z,98795.63
2023-07-08T02:20:01.212Z,98798.59
2023-07-08T02:22:28.121Z,98797.25
2023-07-08T02:24:55.346Z,98790.38
2023-07-08T02:27:22.105Z,98787.06
2023-07-08T02:29:48.883Z,98787.50
2023-07-08T02:32:15.967Z,98795.03
2023-07-08T02:34:42.784Z,98798.00
2023-07-08T02:37:09.517Z,98795.69
2023-07-08T02:39:36.339Z,98795.09
2023-07-08T02:42:03.172Z,98797.22
2023-07-08T02:44:29.966Z,98796.50
2023-07-08T02:46:56.710Z,98794.06
2023-07-08T02:49:23.730Z,98801.75
2023-07-08T02:51:50.435Z,98806.44
2023-07-08T02:54:17.240Z,98809.28
2023-07-08T02:56:44.027Z,98800.41
2023-07-08T02:59:10.833Z,98803.00
2023-07-08T03:01:42.871Z,98800.16
2023-07-08T03:04:14.221Z,98801.88
2023-07-08T03:06:44.961Z,98806.31
2023-07-08T03:09:13.927Z,98810.59
2023-07-08T03:11:41.312Z,98807.03
2023-07-08T03:14:11.461Z,98813.31
2023-07-08T03:16:38.366Z,98811.59
2023-07-08T03:19:05.981Z,98818.63
2023-07-08T03:21:32.955Z,98812.91
2023-07-08T03:23:59.700Z,98810.78
2023-07-08T03:26:30.564Z,98818.69
2023-07-08T03:28:59.961Z,98820.25
2023-07-08T03:31:26.783Z,98810.84
2023-07-08T03:33:53.597Z,98812.59
2023-07-08T03:36:26.607Z,98814.28
2023-07-08T03:38:56.748Z,98809.47
2023-07-08T03:41:24.753Z,98807.09
2023-07-08T03:43:54.511Z,98809.13
2023-07-08T03:46:22.460Z,98805.91
2023-07-08T03:48:49.797Z,98806.38
2023-07-08T03:51:29.808Z,98804.06
2023-07-08T03:53:56.815Z,98794.53
2023-07-08T03:56:23.776Z,98802.16
2023-07-08T03:58:52.369Z,98800.00
2023-07-08T04:01:22.110Z,98804.44
2023-07-08T04:03:49.143Z,98799.88
2023-07-08T04:06:16.161Z,98802.31
2023-07-08T04:08:43.511Z,98795.63
2023-07-08T04:11:21.579Z,98796.78
2023-07-08T04:13:48.933Z,98797.06
2023-07-08T04:16:23.278Z,98798.97
2023-07-08T04:18:52.215Z,98797.28
2023-07-08T04:23:48.936Z,98806.19
2023-07-08T04:26:16.216Z,98792.78
2023-07-08T04:28:44.141Z,98794.91
2023-07-08T04:31:11.790Z,98789.06
2023-07-08T04:33:38.651Z,98792.91
2023-07-08T04:36:10.962Z,98782.34
2023-07-08T04:38:37.866Z,98785.06
2023-07-08T04:41:04.732Z,98786.06
2023-07-08T04:43:31.489Z,98788.06
2023-07-08T04:45:59.086Z,98785.47
2023-07-08T04:48:26.409Z,98786.28
2023-07-08T04:50:54.491Z,98784.44
2023-07-08T04:53:21.443Z,98789.72
2023-07-08T04:55:52.159Z,98787.25
2023-07-08T04:58:19.156Z,98786.38
2023-07-08T05:00:45.983Z,98787.19
2023-07-08T05:03:13.100Z,98789.72
2023-07-08T05:05:39.887Z,98786.09
2023-07-08T05:08:07.792Z,98783.47
2023-07-08T05:10:34.911Z,98776.41
2023-07-08T05:13:01.986Z,98776.50
2023-07-08T05:15:28.759Z,98785.47
2023-07-08T05:17:55.546Z,98776.44
2023-07-08T05:20:23.345Z,98777.38
2023-07-08T05:22:50.078Z,98776.59
2023-07-08T05:25:17.252Z,98770.72
2023-07-08T05:27:44.123Z,98770.38
2023-07-08T05:30:15.963Z,98775.00
2023-07-08T05:32:42.915Z,98767.47
2023-07-08T05:35:11.077Z,98771.09
2023-07-08T05:37:38.506Z,98765.50
2023-07-08T05:40:06.111Z,98761.91
2023-07-08T05:42:33.115Z,98759.38
2023-07-08T05:44:59.945Z,98769.06
2023-07-08T05:47:27.786Z,98766.66
2023-07-08T05:49:54.617Z,98763.69
2023-07-08T05:52:21.626Z,98764.59
2023-07-08T05:54:48.489Z,98771.94
2023-07-08T05:57:15.228Z,98775.25
2023-07-08T05:59:44.405Z,98768.28
2023-07-08T06:02:13.246Z,98768.78
2023-07-08T06:04:40.889Z,98768.53
2023-07-08T06:07:07.873Z,98768.97
2023-07-08T06:09:35.183Z,98768.06
2023-07-08T06:12:01.915Z,98769.22
2023-07-08T06:14:29.254Z,98768.03
2023-07-08T06:16:56.754Z,98773.50
2023-07-08T06:19:23.755Z,98770.16
2023-07-08T06:21:50.583Z,98777.34
2023-07-08T06:24:17.863Z,98776.72
2023-07-08T06:26:44.594Z,98777.81
2023-07-08T06:29:11.330Z,98784.88
2023-07-08T06:31:38.132Z,98775.19
2023-07-08T06:34:05.431Z,98783.88
2023-07-08T06:36:32.800Z,98770.00
2023-07-08T06:38:59.389Z,98775.94
2023-07-08T06:41:26.207Z,98777.72
2023-07-08T06:43:53.809Z,98785.31
2023-07-08T06:46:21.189Z,98792.41
2023-07-08T06:48:48.461Z,98795.56
2023-07-08T06:51:15.102Z,98785.53
2023-07-08T06:53:41.956Z,98792.91
2023-07-08T06:56:09.433Z,98790.47
2023-07-08T06:58:36.455Z,98781.03
2023-07-08T07:01:04.106Z,98789.19
2023-07-08T07:03:31.240Z,98789.75
2023-07-08T07:05:58.105Z,98787.78
2023-07-08T07:08:25.159Z,98787.75
2023-07-08T07:10:51.730Z,98786.06
2023-07-08T07:13:19.848Z,98783.09
2023-07-08T07:15:52.402Z,98789.00
2023-07-08T07:18:19.627Z,98793.63
2023-07-08T07:20:54.844Z,98792.81
2023-07-08T07:23:22.049Z,98788.22
2023-07-08T07:25:48.787Z,98791.47
2023-07-08T07:28:17.868Z,98784.06
2023-07-08T07:30:46.172Z,98782.34
2023-07-08T07:33:13.905Z,98782.97
2023-07-08T07:35:47.357Z,98770.31
2023-07-08T07:38:15.985Z,98782.16
2023-07-08T07:40:42.832Z,98787.13
2023-07-08T07:43:09.872Z,98783.13
2023-07-08T07:45:37.007Z,98787.38
2023-07-08T07:48:04.409Z,98794.94
2023-07-08T07:50:32.132Z,98790.13
2023-07-08T07:52:59.860Z,98788.56
2023-07-08T07:55:27.125Z,98795.22
2023-07-08T07:57:53.913Z,98796.06
2023-07-08T08:00:20.860Z,98784.06
2023-07-08T08:02:47.926Z,98787.41
2023-07-08T08:05:14.849Z,98790.78
2023-07-08T08:07:42.148Z,98792.09
2023-07-08T08:10:11.280Z,98792.16
2023-07-08T08:12:48.603Z,98789.72
2023-07-08T08:15:19.663Z,98793.00
2023-07-08T08:17:50.172Z,98787.50
2023-07-08T08:20:17.466Z,98798.69
2023-07-08T08:22:44.614Z,98790.03
2023-07-08T08:25:11.576Z,98799.84
2023-07-08T08:27:38.605Z,98795.72
2023-07-08T08:30:07.136Z,98788.38
2023-07-08T08:32:34.281Z,98795.41
2023-07-08T08:35:02.957Z,98786.75
2023-07-08T08:37:30.613Z,98785.09
2023-07-08T08:39:57.561Z,98781.88
2023-07-08T08:42:33.844Z,98786.41
2023-07-08T08:45:03.700Z,98776.00
2023-07-08T08:47:40.433Z,98770.25
2023-07-08T08:50:29.477Z,98768.59
2023-07-08T08:52:57.987Z,98772.69
2023-07-08T08:55:26.368Z,98770.91
2023-07-08T08:58:12.608Z,98778.63
2023-07-08T09:00:48.157Z,98774.63
2023-07-08T09:03:34.127Z,98768.38
2023-07-08T09:06:02.164Z,98768.63
2023-07-08T09:08:33.488Z,98771.28
2023-07-08T09:11:22.095Z,98767.78
2023-07-08T09:13:50.208Z,98767.13
2023-07-08T09:16:44.587Z,98763.78
2023-07-08T09:19:26.695Z,98764.84
2023-07-08T09:22:05.849Z,98767.81
2023-07-08T09:24:46.227Z,98760.63
2023-07-08T09:27:13.112Z,98761.59
2023-07-08T09:29:39.887Z,98756.94
2023-07-08T09:32:23.038Z,98757.44
2023-07-08T09:34:56.808Z,98761.84
2023-07-08T09:37:47.251Z,98761.97
2023-07-08T09:40:33.749Z,98760.81
2023-07-08T09:43:14.978Z,98763.47
2023-07-08T09:45:45.775Z,98760.81
2023-07-08T09:48:31.514Z,98748.63
2023-07-08T09:51:00.021Z,98751.09
2023-07-08T09:53:30.576Z,98739.53
2023-07-08T09:56:03.921Z,98744.13
2023-07-08T09:58:35.515Z,98751.03
2023-07-08T10:01:11.903Z,98736.50
2023-07-08T10:03:40.787Z,98744.66
2023-07-08T10:06:23.291Z,98740.09
2023-07-08T10:08:50.430Z,98740.84
2023-07-08T10:11:28.383Z,98735.00
2023-07-08T10:14:13.408Z,98734.31
2023-07-08T10:16:41.441Z,98738.59
2023-07-08T10:19:17.673Z,98735.75
2023-07-08T10:21:59.250Z,98735.75
2023-07-08T10:24:34.909Z,98731.91
2023-07-08T10:27:20.024Z,98727.59
2023-07-08T10:30:07.367Z,98728.22
2023-07-08T10:33:14.549Z,98728.47
2023-07-08T10:36:23.184Z,98720.75
2023-07-08T10:38:55.116Z,98717.09
2023-07-08T10:42:01.632Z,98725.00
2023-07-08T10:44:39.104Z,98722.66
2023-07-08T10:47:46.299Z,98714.13
2023-07-08T10:50:28.952Z,98719.03
2023-07-08T10:53:10.585Z,98711.16
2023-07-08T10:55:51.810Z,98709.69
2023-07-08T10:58:33.471Z,98712.34
2023-07-08T11:01:06.642Z,98717.34
2023-07-08T11:03:46.324Z,98709.47
2023-07-08T11:06:27.925Z,98703.78
2023-07-08T11:09:03.288Z,98705.94
2023-07-08T11:11:52.459Z,98718.97
2023-07-08T11:14:50.995Z,98706.41
2023-07-08T11:17:31.924Z,98695.75
2023-07-08T11:20:19.678Z,98693.19
2023-07-08T11:22:59.802Z,98702.34
2023-07-08T11:25:30.846Z,98694.91
2023-07-08T11:28:04.090Z,98694.69
2023-07-08T11:30:34.339Z,98686.22
2023-07-08T11:33:10.222Z,98687.06
2023-07-08T11:35:48.050Z,98682.38
2023-07-08T11:38:19.470Z,98674.50
2023-07-08T11:41:01.694Z,98681.09
2023-07-08T11:43:57.268Z,98680.88
2023-07-08T11:46:31.515Z,98683.22
2023-07-08T11:49:15.650Z,98683.22
2023-07-08T11:51:47.068Z,98680.69
2023-07-08T11:54:30.532Z,98682.38
2023-07-08T11:57:25.264Z,98681.28
2023-07-08T12:00:14.126Z,98679.19
2023-07-08T12:02:59.531Z,98673.81
2023-07-08T12:05:36.877Z,98683.41
2023-07-08T12:08:12.531Z,98672.13
2023-07-08T12:10:44.900Z,98671.28
2023-07-08T12:13:18.439Z,98673.22
2023-07-08T12:15:45.430Z,98666.81
2023-07-08T12:18:23.613Z,98669.59
2023-07-08T12:20:56.471Z,98662.16
2023-07-08T12:23:25.534Z,98664.28
2023-07-08T12:25:54.429Z,98655.97
2023-07-08T12:28:22.875Z,98660.03
2023-07-08T12:30:52.466Z,98655.31
2023-07-08T12:33:33.186Z,98652.75
2023-07-08T12:36:02.238Z,98648.09
2023-07-08T12:38:33.883Z,98647.25
2023-07-08T12:41:06.929Z,98641.50
2023-07-08T12:43:33.934Z,98638.31
2023-07-08T12:46:00.709Z,98640.63
2023-07-08T12:48:33.058Z,98639.75
2023-07-08T12:50:59.964Z,98630.59
2023-07-08T12:53:27.181Z,98639.53
2023-07-08T12:55:56.493Z,98624.41
2023-07-08T12:58:29.790Z,98628.47
2023-07-08T13:00:59.669Z,98621.22
2023-07-08T13:03:32.527Z,98626.97
2023-07-08T13:06:02.123Z,98625.44
2023-07-08T13:08:35.989Z,98618.66
2023-07-08T13:11:07.446Z,98622.06
2023-07-08T13:13:41.536Z,98622.06
2023-07-08T13:16:11.690Z,98614.84
2023-07-08T13:18:42.297Z,98614.47
2023-07-08T13:21:13.734Z,98613.63
2023-07-08T13:23:41.653Z,98614.25
2023-07-08T13:26:23.056Z,98621.09
2023-07-08T13:28:51.273Z,98615.97
2023-07-08T13:31:25.532Z,98612.56
2023-07-08T13:33:55.074Z,98611.50
2023-07-08T13:36:36.133Z,98614.06
2023-07-08T13:39:07.924Z,98612.75
2023-07-08T13:41:35.571Z,98604.81
2023-07-08T13:44:07.723Z,98602.88
2023-07-08T13:46:42.061Z,98603.97
2023-07-08T13:49:15.884Z,98606.97
2023-07-08T13:51:43.338Z,98611.03
2023-07-08T13:54:40.038Z,98604.81
2023-07-08T13:57:18.515Z,98604.19
2023-07-08T13:59:46.182Z,98602.88
2023-07-08T14:02:24.629Z,98598.41
2023-07-08T14:04:53.857Z,98599.88
2023-07-08T14:07:23.678Z,98599.44
2023-07-08T14:09:50.798Z,98604.53
2023-07-08T14:12:17.562Z,98606.00
2023-07-08T14:14:44.304Z,98595.16
2023-07-08T14:17:15.751Z,98592.38
2023-07-08T14:19:42.534Z,98590.06
2023-07-08T14:22:29.386Z,98593.91
2023-07-08T14:24:58.095Z,98592.19
2023-07-08T14:27:25.630Z,98592.44
2023-07-08T14:29:53.492Z,98585.81
2023-07-08T14:32:32.242Z,98585.38
2023-07-08T14:35:12.150Z,98586.00
2023-07-08T14:37:41.154Z,98577.50
2023-07-08T14:40:32.955Z,98574.88
2023-07-08T14:43:03.132Z,98576.38
2023-07-08T14:45:33.135Z,98572.09
2023-07-08T14:48:00.281Z,98580.22
2023-07-08T14:50:31.636Z,98581.25
2023-07-08T14:52:58.484Z,98578.28
2023-07-08T14:55:26.101Z,98561.47
2023-07-08T14:57:53.612Z,98573.16
2023-07-08T15:00:20.821Z,98574.03
2023-07-08T15:02:49.549Z,98560.22
2023-07-08T15:05:24.285Z,98564.84
2023-07-08T15:07:53.569Z,98558.25
2023-07-08T15:10:25.388Z,98561.88
2023-07-08T15:12:52.265Z,98565.53
2023-07-08T15:15:29.873Z,98564.44
2023-07-08T15:18:02.234Z,98559.38
2023-07-08T15:20:33.653Z,98557.03
2023-07-08T15:23:01.481Z,98555.34
2023-07-08T15:25:28.712Z,98545.97
2023-07-08T15:27:58.300Z,98549.13
2023-07-08T15:30:29.254Z,98544.63
2023-07-08T15:32:57.386Z,98549.50
2023-07-08T15:35:27.096Z,98553.16
2023-07-08T15:37:54.155Z,98550.59
2023-07-08T15:40:23.833Z,98546.53
2023-07-08T15:42:53.158Z,98552.69
2023-07-08T15:45:41.687Z,98545.63
2023-07-08T15:48:15.654Z,98550.53
2023-07-08T15:50:43.422Z,98548.03
2023-07-08T15:53:10.312Z,98545.25
2023-07-08T15:55:45.658Z,98545.63
2023-07-08T15:58:20.096Z,98552.03
2023-07-08T16:00:46.974Z,98545.25
2023-07-08T16:03:25.054Z,98542.72
2023-07-08T16:05:53.527Z,98545.69
2023-07-08T16:08:20.491Z,98545.69
2023-07-08T16:10:53.787Z,98549.28
2023-07-08T16:13:29.835Z,98544.16
2023-07-08T16:15:56.799Z,98542.66
2023-07-08T16:18:23.753Z,98541.38
2023-07-08T16:20:50.785Z,98543.25
2023-07-08T16:23:17.677Z,98547.13
2023-07-08T16:25:47.340Z,98540.97
2023-07-08T16:28:44.263Z,98537.38
2023-07-08T16:31:16.169Z,98539.78
2023-07-08T16:33:43.848Z,98538.13
2023-07-08T16:36:16.672Z,98541.09
2023-07-08T16:38:43.865Z,98536.22
2023-07-08T16:41:13.885Z,98546.25
2023-07-08T16:43:41.542Z,98538.41
2023-07-08T16:46:13.974Z,98537.16
2023-07-08T16:48:44.599Z,98536.13
2023-07-08T16:51:21.159Z,98542.34
2023-07-08T16:53:48.110Z,98537.22
2023-07-08T16:56:19.315Z,98533.19
2023-07-08T16:58:46.151Z,98537.00
2023-07-08T17:01:21.034Z,98537.00
2023-07-08T17:03:49.983Z,98532.75
2023-07-08T17:06:16.953Z,98529.34
2023-07-08T17:08:45.156Z,98522.97
2023-07-08T17:11:14.517Z,98534.88
2023-07-08T17:13:42.296Z,98526.38
2023-07-08T17:16:15.089Z,98523.41
2023-07-08T17:18:41.944Z,98522.56
2023-07-08T17:21:14.066Z,98513.03
2023-07-08T17:23:41.779Z,98512.66
2023-07-08T17:26:08.719Z,98510.34
2023-07-08T17:28:36.876Z,98523.34
2023-07-08T17:31:05.456Z,98527.19
2023-07-08T17:33:33.496Z,98529.94
2023-07-08T17:36:00.993Z,98527.19
2023-07-08T17:38:48.009Z,98524.44
2023-07-08T17:41:20.730Z,98529.75
2023-07-08T17:43:48.810Z,98526.38
2023-07-08T17:46:20.575Z,98524.19
2023-07-08T17:48:48.909Z,98523.97
2023-07-08T17:51:17.293Z,98521.84
2023-07-08T17:53:45.070Z,98518.84
2023-07-08T17:56:19.363Z,98519.22
2023-07-08T17:58:51.729Z,98526.19
2023-07-08T18:01:20.431Z,98524.84
2023-07-08T18:03:49.859Z,98518.88
2023-07-08T18:06:17.858Z,98524.78
2023-07-08T18:08:45.932Z,98529.81
2023-07-08T18:11:15.095Z,98518.13
2023-07-08T18:13:42.864Z,98525.91
2023-07-08T18:16:17.897Z,98529.22
2023-07-08T18:18:47.383Z,98524.06
2023-07-08T18:21:20.346Z,98524.41
2023-07-08T18:23:49.723Z,98528.38
2023-07-08T18:26:27.507Z,98526.81
2023-07-08T18:28:55.516Z,98529.72
2023-07-08T18:31:32.170Z,98529.00
2023-07-08T18:34:03.573Z,98528.06
2023-07-08T18:36:31.085Z,98531.81
2023-07-08T18:38:58.475Z,98532.78
2023-07-08T18:41:29.644Z,98541.19
2023-07-08T18:43:57.965Z,98545.97
2023-07-08T18:46:25.505Z,98534.91
2023-07-08T18:48:52.429Z,98537.78
2023-07-08T18:51:27.047Z,98539.78
2023-07-08T18:53:55.224Z,98546.44
2023-07-08T18:56:22.053Z,98545.28
2023-07-08T18:58:50.239Z,98543.50
2023-07-08T19:01:28.433Z,98538.13
2023-07-08T19:03:58.340Z,98542.91
2023-07-08T19:06:26.206Z,98549.13
2023-07-08T19:08:53.044Z,98549.06
2023-07-08T19:11:23.435Z,98547.47
2023-07-08T19:13:51.460Z,98552.88
2023-07-08T19:16:21.596Z,98553.59
2023-07-08T19:18:51.371Z,98549.25
2023-07-08T19:21:28.128Z,98556.88
2023-07-08T19:23:56.198Z,98558.50
2023-07-08T19:26:25.822Z,98554.13
2023-07-08T19:28:54.326Z,98555.06
2023-07-08T19:31:29.626Z,98555.72
2023-07-08T19:33:57.381Z,98550.09
2023-07-08T19:36:24.324Z,98560.78
2023-07-08T19:38:51.732Z,98557.72
2023-07-08T19:41:25.263Z,98555.50
2023-07-08T19:43:53.308Z,98555.97
2023-07-08T19:46:20.260Z,98557.72
2023-07-08T19:48:47.231Z,98551.06
2023-07-08T19:51:14.436Z,98555.03
2023-07-08T19:53:41.575Z,98554.06
2023-07-08T19:56:16.856Z,98557.53
2023-07-08T19:58:46.110Z,98553.13
2023-07-08T20:01:13.535Z,98546.00
2023-07-08T20:03:40.724Z,98553.38
2023-07-08T20:06:21.696Z,98554.25
2023-07-08T20:08:48.533Z,98552.63
2023-07-08T20:11:16.668Z,98559.00
2023-07-08T20:13:43.545Z,98559.00
2023-07-08T20:16:26.266Z,98557.16
2023-07-08T20:18:59.554Z,98568.47
2023-07-08T20:21:27.195Z,98569.88
2023-07-08T20:23:54.307Z,98568.34
2023-07-08T20:26:34.054Z,98573.66
2023-07-08T20:29:00.888Z,98577.09
2023-07-08T20:31:28.664Z,98571.66
2023-07-08T20:33:55.774Z,98572.16
2023-07-08T20:36:25.071Z,98568.91
2023-07-08T20:38:52.090Z,98574.38
2023-07-08T20:41:19.798Z,98577.47
2023-07-08T20:43:46.593Z,98580.53
2023-07-08T20:46:20.954Z,98577.13
2023-07-08T20:48:48.784Z,98582.94
2023-07-08T20:51:16.474Z,98586.19
2023-07-08T20:53:43.378Z,98586.88
2023-07-08T20:56:23.848Z,98583.63
2023-07-08T20:58:51.408Z,98586.00
2023-07-08T21:01:18.270Z,98585.50
2023-07-08T21:03:48.062Z,98582.28
2023-07-08T21:06:24.104Z,98595.25
2023-07-08T21:08:56.387Z,98586.53
2023-07-08T21:11:23.193Z,98593.34
2023-07-08T21:13:50.650Z,98586.50
2023-07-08T21:16:24.475Z,98599.50
2023-07-08T21:18:53.729Z,98596.25
2023-07-08T21:21:21.855Z,98595.75
2023-07-08T21:23:49.633Z,98594.16
2023-07-08T21:26:25.812Z,98591.78
2023-07-08T21:28:55.091Z,98590.22
2023-07-08T21:31:22.009Z,98592.09
2023-07-08T21:33:50.720Z,98594.31
2023-07-08T21:36:24.956Z,98596.22
2023-07-08T21:38:53.630Z,98589.00
2023-07-08T21:41:21.053Z,98602.84
2023-07-08T21:43:47.913Z,98593.13
2023-07-08T21:46:14.840Z,98596.00
2023-07-08T21:48:42.221Z,98599.78
2023-07-08T21:51:27.362Z,98598.94
2023-07-08T21:53:54.895Z,98600.25
2023-07-08T21:56:21.965Z,98592.06
2023-07-08T21:58:49.081Z,98598.72
2023-07-08T22:01:27.755Z,98600.63
2023-07-08T22:03:57.406Z,98600.78
2023-07-08T22:06:25.269Z,98595.47
2023-07-08T22:08:52.062Z,98592.72
2023-07-08T22:11:26.996Z,98591.03
2023-07-08T22:13:56.737Z,98598.38
2023-07-08T22:16:24.963Z,98594.78
2023-07-08T22:18:53.136Z,98593.09
2023-07-08T22:21:29.759Z,98590.50
2023-07-08T22:24:02.026Z,98586.06
2023-07-08T22:26:29.893Z,98588.94
2023-07-08T22:28:56.762Z,98588.25
2023-07-08T22:31:27.370Z,98591.19
2023-07-08T22:33:54.761Z,98584.16
2023-07-08T22:36:22.358Z,98582.78
2023-07-08T22:39:09.234Z,98597.47
2023-07-08T22:41:46.113Z,98594.22
2023-07-08T22:46:42.203Z,98590.44
2023-07-08T22:49:09.410Z,98592.63
2023-07-08T22:51:42.753Z,98583.75
2023-07-08T22:54:15.490Z,98595.88
2023-07-08T22:56:42.770Z,98589.88
2023-07-08T22:59:09.584Z,98597.38
2023-07-08T23:01:36.405Z,98589.50
2023-07-08T23:04:03.557Z,98594.28
2023-07-08T23:06:30.701Z,98583.66
2023-07-08T23:08:57.512Z,98587.41
2023-07-08T23:11:24.535Z,98592.16
2023-07-08T23:13:51.635Z,98597.94
2023-07-08T23:16:27.004Z,98591.78
2023-07-08T23:18:54.380Z,98596.72
2023-07-08T23:21:23.911Z,98597.91
2023-07-08T23:23:50.917Z,98600.78
2023-07-08T23:26:23.676Z,98602.97
2023-07-08T23:28:56.023Z,98603.13
2023-07-08T23:31:23.481Z,98599.72
2023-07-08T23:33:50.426Z,98599.91
2023-07-08T23:36:35.710Z,98608.25
2023-07-08T23:39:04.861Z,98602.94
2023-07-08T23:41:33.292Z,98599.38
2023-07-08T23:44:00.253Z,98598.69
2023-07-08T23:46:31.865Z,98602.25
2023-07-08T23:49:11.458Z,98597.78
2023-07-08T23:51:38.058Z,98607.31
2023-07-08T23:54:11.156Z,98602.22
2023-07-08T23:56:38.208Z,98608.81
2023-07-08T23:59:05.025Z,98600.81
